sensor_id;sensor_type;location;lat;lon;timestamp;pressure;altitude;pressure_sealevel;temperature;humidity
69848;BME280;57143;55.940;37.496;2022-08-21T00:01:26;100239.38;;;17.26;65.97
69848;BME280;57143;55.940;37.496;2022-08-21T00:03:56;100240.47;;;17.25;66.44
69848;BME280;57143;55.940;37.496;2022-08-21T00:06:24;100230.03;;;17.22;66.88
69848;BME280;57143;55.940;37.496;2022-08-21T00:08:51;100243.38;;;17.18;67.20
69848;BME280;57143;55.940;37.496;2022-08-21T00:11:18;100227.19;;;17.17;67.35
69848;BME280;57143;55.940;37.496;2022-08-21T00:13:46;100222.69;;;17.11;67.80
69848;BME280;57143;55.940;37.496;2022-08-21T00:16:13;100230.31;;;17.09;67.51
69848;BME280;57143;55.940;37.496;2022-08-21T00:18:40;100234.66;;;17.05;68.23
69848;BME280;57143;55.940;37.496;2022-08-21T00:21:10;100231.91;;;17.05;68.22
69848;BME280;57143;55.940;37.496;2022-08-21T00:23:38;100233.22;;;17.02;68.34
69848;BME280;57143;55.940;37.496;2022-08-21T00:26:05;100237.78;;;16.97;68.81
69848;BME280;57143;55.940;37.496;2022-08-21T00:28:33;100231.94;;;16.93;69.41
69848;BME280;57143;55.940;37.496;2022-08-21T00:31:00;100211.28;;;16.86;69.20
69848;BME280;57143;55.940;37.496;2022-08-21T00:33:29;100215.09;;;16.85;69.83
69848;BME280;57143;55.940;37.496;2022-08-21T00:35:56;100221.16;;;16.87;69.86
69848;BME280;57143;55.940;37.496;2022-08-21T00:38:25;100217.25;;;16.83;70.05
69848;BME280;57143;55.940;37.496;2022-08-21T00:40:54;100188.31;;;16.59;70.51
69848;BME280;57143;55.940;37.496;2022-08-21T00:43:25;100200.53;;;16.68;70.81
69848;BME280;57143;55.940;37.496;2022-08-21T00:45:53;100212.31;;;16.68;70.82
69848;BME280;57143;55.940;37.496;2022-08-21T00:48:22;100220.38;;;16.75;70.97
69848;BME280;57143;55.940;37.496;2022-08-21T00:50:53;100218.38;;;16.70;71.37
69848;BME280;57143;55.940;37.496;2022-08-21T00:53:22;100206.84;;;16.68;71.25
69848;BME280;57143;55.940;37.496;2022-08-21T00:55:51;100204.34;;;16.67;71.47
69848;BME280;57143;55.940;37.496;2022-08-21T00:58:19;100213.63;;;16.66;71.68
69848;BME280;57143;55.940;37.496;2022-08-21T01:00:48;100211.63;;;16.61;71.64
69848;BME280;57143;55.940;37.496;2022-08-21T01:03:18;100216.84;;;16.63;71.28
69848;BME280;57143;55.940;37.496;2022-08-21T01:05:46;100216.53;;;16.59;72.11
69848;BME280;57143;55.940;37.496;2022-08-21T01:08:15;100212.25;;;16.52;72.44
69848;BME280;57143;55.940;37.496;2022-08-21T01:10:43;100216.41;;;16.54;72.42
69848;BME280;57143;55.940;37.496;2022-08-21T01:13:14;100214.25;;;16.45;72.48
69848;BME280;57143;55.940;37.496;2022-08-21T01:15:44;100220.72;;;16.50;72.87
69848;BME280;57143;55.940;37.496;2022-08-21T01:18:13;100213.84;;;16.48;73.00
69848;BME280;57143;55.940;37.496;2022-08-21T01:20:43;100210.84;;;16.38;73.65
69848;BME280;57143;55.940;37.496;2022-08-21T01:23:12;100234.16;;;16.40;73.83
69848;BME280;57143;55.940;37.496;2022-08-21T01:25:39;100220.47;;;16.40;74.02
69848;BME280;57143;55.940;37.496;2022-08-21T01:28:11;100216.56;;;16.36;74.17
69848;BME280;57143;55.940;37.496;2022-08-21T01:30:39;100110.31;;;15.65;74.32
69848;BME280;57143;55.940;37.496;2022-08-21T01:33:08;100225.75;;;16.30;74.49
69848;BME280;57143;55.940;37.496;2022-08-21T01:35:35;100220.97;;;16.26;74.70
69848;BME280;57143;55.940;37.496;2022-08-21T01:38:02;100229.44;;;16.24;75.43
69848;BME280;57143;55.940;37.496;2022-08-21T01:40:31;100222.31;;;16.23;75.29
69848;BME280;57143;55.940;37.496;2022-08-21T01:42:58;100213.75;;;16.19;75.65
69848;BME280;57143;55.940;37.496;2022-08-21T01:45:25;100214.25;;;16.16;75.98
69848;BME280;57143;55.940;37.496;2022-08-21T01:47:52;100207.34;;;16.14;75.73
69848;BME280;57143;55.940;37.496;2022-08-21T01:50:19;100194.19;;;15.99;75.99
69848;BME280;57143;55.940;37.496;2022-08-21T01:52:47;100225.63;;;16.13;76.13
69848;BME280;57143;55.940;37.496;2022-08-21T01:55:15;100206.88;;;16.05;76.23
69848;BME280;57143;55.940;37.496;2022-08-21T01:57:45;100210.31;;;16.12;75.83
69848;BME280;57143;55.940;37.496;2022-08-21T02:00:15;100194.06;;;15.94;76.47
69848;BME280;57143;55.940;37.496;2022-08-21T02:02:42;100223.88;;;16.07;76.22
69848;BME280;57143;55.940;37.496;2022-08-21T02:05:11;100219.50;;;16.06;76.63
69848;BME280;57143;55.940;37.496;2022-08-21T02:07:40;100220.44;;;16.00;76.84
69848;BME280;57143;55.940;37.496;2022-08-21T02:10:09;100230.28;;;16.01;76.77
69848;BME280;57143;55.940;37.496;2022-08-21T02:12:36;100223.19;;;16.00;77.14
69848;BME280;57143;55.940;37.496;2022-08-21T02:15:06;100216.28;;;15.98;77.07
69848;BME280;57143;55.940;37.496;2022-08-21T02:17:39;100218.44;;;15.96;77.11
69848;BME280;57143;55.940;37.496;2022-08-21T02:20:07;100199.41;;;15.89;76.99
69848;BME280;57143;55.940;37.496;2022-08-21T02:22:35;100223.66;;;15.97;77.25
69848;BME280;57143;55.940;37.496;2022-08-21T02:25:02;100224.16;;;15.94;77.14
69848;BME280;57143;55.940;37.496;2022-08-21T02:27:36;100233.53;;;15.98;77.09
69848;BME280;57143;55.940;37.496;2022-08-21T02:30:06;100228.06;;;15.87;77.19
69848;BME280;57143;55.940;37.496;2022-08-21T02:32:33;100226.50;;;16.02;77.14
69848;BME280;57143;55.940;37.496;2022-08-21T02:35:01;100233.88;;;16.02;76.92
69848;BME280;57143;55.940;37.496;2022-08-21T02:37:28;100234.94;;;16.12;76.42
69848;BME280;57143;55.940;37.496;2022-08-21T02:39:55;100233.75;;;16.20;76.01
69848;BME280;57143;55.940;37.496;2022-08-21T02:42:21;100234.09;;;16.24;75.96
69848;BME280;57143;55.940;37.496;2022-08-21T02:44:48;100235.59;;;16.31;75.39
69848;BME280;57143;55.940;37.496;2022-08-21T02:47:17;100211.56;;;16.33;74.31
69848;BME280;57143;55.940;37.496;2022-08-21T02:49:44;100218.31;;;16.54;73.32
69848;BME280;57143;55.940;37.496;2022-08-21T02:52:11;100225.75;;;16.70;72.52
69848;BME280;57143;55.940;37.496;2022-08-21T02:54:38;100230.84;;;16.78;71.83
69848;BME280;57143;55.940;37.496;2022-08-21T02:57:05;100223.13;;;16.75;71.49
69848;BME280;57143;55.940;37.496;2022-08-21T02:59:33;100223.16;;;16.91;70.70
69848;BME280;57143;55.940;37.496;2022-08-21T03:02:00;100220.47;;;17.08;69.48
69848;BME280;57143;55.940;37.496;2022-08-21T03:04:29;100226.53;;;17.10;69.00
69848;BME280;57143;55.940;37.496;2022-08-21T03:06:55;100221.88;;;17.27;68.28
69848;BME280;57143;55.940;37.496;2022-08-21T03:09:22;100220.59;;;17.46;67.19
69848;BME280;57143;55.940;37.496;2022-08-21T03:11:49;100237.88;;;17.63;65.93
69848;BME280;57143;55.940;37.496;2022-08-21T03:14:17;100228.38;;;17.71;65.13
69848;BME280;57143;55.940;37.496;2022-08-21T03:16:44;100229.94;;;17.83;63.78
69848;BME280;57143;55.940;37.496;2022-08-21T03:19:11;100201.75;;;17.88;62.45
69848;BME280;57143;55.940;37.496;2022-08-21T03:21:40;100229.22;;;18.31;61.19
69848;BME280;57143;55.940;37.496;2022-08-21T03:24:07;100236.38;;;18.32;61.07
69848;BME280;57143;55.940;37.496;2022-08-21T03:26:34;100234.22;;;18.77;59.25
69848;BME280;57143;55.940;37.496;2022-08-21T03:29:02;100241.25;;;18.95;57.56
69848;BME280;57143;55.940;37.496;2022-08-21T03:31:28;100250.53;;;19.37;55.67
69848;BME280;57143;55.940;37.496;2022-08-21T03:33:57;100246.16;;;19.41;54.36
69848;BME280;57143;55.940;37.496;2022-08-21T03:36:24;100253.44;;;19.57;53.87
69848;BME280;57143;55.940;37.496;2022-08-21T03:38:53;100256.38;;;19.77;52.79
69848;BME280;57143;55.940;37.496;2022-08-21T03:41:20;100253.94;;;19.86;52.53
69848;BME280;57143;55.940;37.496;2022-08-21T03:43:47;100253.69;;;19.87;52.03
69848;BME280;57143;55.940;37.496;2022-08-21T03:46:14;100257.63;;;20.01;51.52
69848;BME280;57143;55.940;37.496;2022-08-21T03:48:41;100225.09;;;19.93;50.57
69848;BME280;57143;55.940;37.496;2022-08-21T03:51:08;100255.06;;;19.90;51.79
69848;BME280;57143;55.940;37.496;2022-08-21T03:53:36;100231.50;;;19.62;52.91
69848;BME280;57143;55.940;37.496;2022-08-21T03:56:05;100258.31;;;19.82;52.13
69848;BME280;57143;55.940;37.496;2022-08-21T03:58:33;100248.72;;;19.84;52.12
69848;BME280;57143;55.940;37.496;2022-08-21T04:01:01;100236.09;;;19.93;51.45
69848;BME280;57143;55.940;37.496;2022-08-21T04:03:28;100241.31;;;20.31;50.70
69848;BME280;57143;55.940;37.496;2022-08-21T04:05:55;100215.81;;;20.04;50.44
69848;BME280;57143;55.940;37.496;2022-08-21T04:08:23;100242.09;;;20.22;50.46
69848;BME280;57143;55.940;37.496;2022-08-21T04:10:52;100237.44;;;20.27;50.50
69848;BME280;57143;55.940;37.496;2022-08-21T04:13:21;100242.56;;;20.14;50.78
69848;BME280;57143;55.940;37.496;2022-08-21T04:15:48;100242.78;;;20.07;51.13
69848;BME280;57143;55.940;37.496;2022-08-21T04:18:15;100247.47;;;20.02;51.53
69848;BME280;57143;55.940;37.496;2022-08-21T04:20:44;100250.47;;;20.05;51.42
69848;BME280;57143;55.940;37.496;2022-08-21T04:23:13;100242.78;;;20.07;51.39
69848;BME280;57143;55.940;37.496;2022-08-21T04:25:39;100239.00;;;20.13;50.46
69848;BME280;57143;55.940;37.496;2022-08-21T04:28:06;100239.25;;;20.12;50.91
69848;BME280;57143;55.940;37.496;2022-08-21T04:30:35;100240.84;;;20.44;49.97
69848;BME280;57143;55.940;37.496;2022-08-21T04:33:02;100252.09;;;20.38;49.53
69848;BME280;57143;55.940;37.496;2022-08-21T04:35:29;100242.16;;;20.37;49.81
69848;BME280;57143;55.940;37.496;2022-08-21T04:37:57;100238.88;;;20.40;50.49
69848;BME280;57143;55.940;37.496;2022-08-21T04:40:26;100239.25;;;20.58;49.27
69848;BME280;57143;55.940;37.496;2022-08-21T04:42:55;100228.44;;;20.52;49.31
69848;BME280;57143;55.940;37.496;2022-08-21T04:45:25;100252.91;;;20.38;50.12
69848;BME280;57143;55.940;37.496;2022-08-21T04:47:55;100237.81;;;20.46;49.12
69848;BME280;57143;55.940;37.496;2022-08-21T04:50:25;100235.38;;;20.54;49.11
69848;BME280;57143;55.940;37.496;2022-08-21T04:52:54;100248.03;;;20.60;49.19
69848;BME280;57143;55.940;37.496;2022-08-21T04:55:22;100231.91;;;20.94;47.39
69848;BME280;57143;55.940;37.496;2022-08-21T04:57:53;100249.06;;;21.11;47.17
69848;BME280;57143;55.940;37.496;2022-08-21T05:00:21;100244.09;;;20.98;47.29
69848;BME280;57143;55.940;37.496;2022-08-21T05:02:51;100255.13;;;21.13;46.63
69848;BME280;57143;55.940;37.496;2022-08-21T05:05:23;100216.56;;;21.48;45.06
69848;BME280;57143;55.940;37.496;2022-08-21T05:07:51;100243.00;;;22.10;43.19
69848;BME280;57143;55.940;37.496;2022-08-21T05:10:20;100247.69;;;22.19;42.57
69848;BME280;57143;55.940;37.496;2022-08-21T05:12:47;100244.91;;;22.29;42.09
69848;BME280;57143;55.940;37.496;2022-08-21T05:15:14;100245.69;;;22.40;41.79
69848;BME280;57143;55.940;37.496;2022-08-21T05:17:42;100242.81;;;22.70;41.28
69848;BME280;57143;55.940;37.496;2022-08-21T05:20:10;100241.88;;;22.95;39.84
69848;BME280;57143;55.940;37.496;2022-08-21T05:22:39;100239.19;;;22.79;39.16
69848;BME280;57143;55.940;37.496;2022-08-21T05:25:09;100213.81;;;22.62;38.88
69848;BME280;57143;55.940;37.496;2022-08-21T05:27:36;100230.13;;;23.13;38.42
69848;BME280;57143;55.940;37.496;2022-08-21T05:30:04;100233.06;;;22.87;38.40
69848;BME280;57143;55.940;37.496;2022-08-21T05:32:32;100238.78;;;23.01;37.95
69848;BME280;57143;55.940;37.496;2022-08-21T05:34:59;100238.97;;;23.15;37.62
69848;BME280;57143;55.940;37.496;2022-08-21T05:37:26;100238.66;;;22.77;38.16
69848;BME280;57143;55.940;37.496;2022-08-21T05:39:55;100201.00;;;22.81;37.88
69848;BME280;57143;55.940;37.496;2022-08-21T05:42:21;100205.69;;;22.86;37.05
69848;BME280;57143;55.940;37.496;2022-08-21T05:44:48;100233.22;;;23.50;36.79
69848;BME280;57143;55.940;37.496;2022-08-21T05:47:15;100235.03;;;23.31;36.49
69848;BME280;57143;55.940;37.496;2022-08-21T05:49:42;100233.34;;;23.35;35.78
69848;BME280;57143;55.940;37.496;2022-08-21T05:52:09;100233.84;;;23.37;36.21
69848;BME280;57143;55.940;37.496;2022-08-21T05:54:37;100214.47;;;23.37;35.95
69848;BME280;57143;55.940;37.496;2022-08-21T05:57:05;100228.47;;;24.13;34.84
69848;BME280;57143;55.940;37.496;2022-08-21T05:59:33;100236.59;;;23.75;34.57
69848;BME280;57143;55.940;37.496;2022-08-21T06:02:01;100222.19;;;24.07;34.45
69848;BME280;57143;55.940;37.496;2022-08-21T06:04:28;100233.44;;;24.16;34.47
69848;BME280;57143;55.940;37.496;2022-08-21T06:06:55;100226.00;;;23.82;34.24
69848;BME280;57143;55.940;37.496;2022-08-21T06:09:22;100225.56;;;23.70;35.14
69848;BME280;57143;55.940;37.496;2022-08-21T06:11:49;100233.28;;;23.73;35.00
69848;BME280;57143;55.940;37.496;2022-08-21T06:14:18;100228.28;;;23.75;34.85
69848;BME280;57143;55.940;37.496;2022-08-21T06:16:44;100221.72;;;24.00;33.98
69848;BME280;57143;55.940;37.496;2022-08-21T06:19:12;100226.84;;;23.83;34.37
69848;BME280;57143;55.940;37.496;2022-08-21T06:21:38;100215.13;;;23.91;34.56
69848;BME280;57143;55.940;37.496;2022-08-21T06:24:05;100219.13;;;23.75;34.11
69848;BME280;57143;55.940;37.496;2022-08-21T06:26:33;100222.81;;;23.99;33.59
69848;BME280;57143;55.940;37.496;2022-08-21T06:29:00;100221.22;;;24.17;33.24
69848;BME280;57143;55.940;37.496;2022-08-21T06:31:28;100216.06;;;24.10;33.46
69848;BME280;57143;55.940;37.496;2022-08-21T06:33:55;100206.16;;;24.28;33.03
69848;BME280;57143;55.940;37.496;2022-08-21T06:36:22;100218.63;;;24.25;32.84
69848;BME280;57143;55.940;37.496;2022-08-21T06:38:49;100214.22;;;24.24;32.77
69848;BME280;57143;55.940;37.496;2022-08-21T06:41:17;100198.72;;;24.47;32.58
69848;BME280;57143;55.940;37.496;2022-08-21T06:43:44;100211.63;;;24.98;32.06
69848;BME280;57143;55.940;37.496;2022-08-21T06:46:11;100206.38;;;24.97;31.72
69848;BME280;57143;55.940;37.496;2022-08-21T06:48:40;100204.63;;;25.01;30.97
69848;BME280;57143;55.940;37.496;2022-08-21T06:51:07;100196.25;;;25.25;30.81
69848;BME280;57143;55.940;37.496;2022-08-21T06:53:34;100214.63;;;25.02;30.75
69848;BME280;57143;55.940;37.496;2022-08-21T06:56:01;100180.13;;;24.71;30.64
69848;BME280;57143;55.940;37.496;2022-08-21T06:58:28;100206.94;;;24.75;30.98
69848;BME280;57143;55.940;37.496;2022-08-21T07:00:56;100200.81;;;24.78;30.60
69848;BME280;57143;55.940;37.496;2022-08-21T07:03:26;100200.69;;;24.88;29.92
69848;BME280;57143;55.940;37.496;2022-08-21T07:05:55;100197.94;;;24.83;30.26
69848;BME280;57143;55.940;37.496;2022-08-21T07:08:24;100199.47;;;24.94;30.03
69848;BME280;57143;55.940;37.496;2022-08-21T07:10:52;100189.50;;;24.93;29.95
69848;BME280;57143;55.940;37.496;2022-08-21T07:13:19;100191.53;;;24.88;29.89
69848;BME280;57143;55.940;37.496;2022-08-21T07:15:47;100187.53;;;24.94;30.06
69848;BME280;57143;55.940;37.496;2022-08-21T07:18:14;100180.25;;;25.17;29.21
69848;BME280;57143;55.940;37.496;2022-08-21T07:20:42;100185.97;;;25.06;29.51
69848;BME280;57143;55.940;37.496;2022-08-21T07:23:12;100181.19;;;25.12;29.24
69848;BME280;57143;55.940;37.496;2022-08-21T07:25:42;100194.66;;;25.19;28.34
69848;BME280;57143;55.940;37.496;2022-08-21T07:28:09;100191.22;;;25.45;28.60
69848;BME280;57143;55.940;37.496;2022-08-21T07:30:36;100193.19;;;25.58;28.41
69848;BME280;57143;55.940;37.496;2022-08-21T07:33:03;100181.66;;;25.97;28.41
69848;BME280;57143;55.940;37.496;2022-08-21T07:35:30;100178.19;;;26.32;27.89
69848;BME280;57143;55.940;37.496;2022-08-21T07:37:58;100191.78;;;26.34;27.08
69848;BME280;57143;55.940;37.496;2022-08-21T07:40:27;100188.28;;;26.42;26.63
69848;BME280;57143;55.940;37.496;2022-08-21T07:42:54;100177.50;;;25.67;26.60
69848;BME280;57143;55.940;37.496;2022-08-21T07:45:22;100172.56;;;25.64;26.91
69848;BME280;57143;55.940;37.496;2022-08-21T07:47:51;100158.75;;;25.59;26.84
69848;BME280;57143;55.940;37.496;2022-08-21T07:50:18;100175.53;;;26.13;26.48
69848;BME280;57143;55.940;37.496;2022-08-21T07:52:46;100184.91;;;26.04;25.92
69848;BME280;57143;55.940;37.496;2022-08-21T07:55:16;100173.50;;;25.87;26.45
69848;BME280;57143;55.940;37.496;2022-08-21T07:57:45;100174.28;;;26.06;26.20
69848;BME280;57143;55.940;37.496;2022-08-21T08:00:16;100178.31;;;25.68;26.01
69848;BME280;57143;55.940;37.496;2022-08-21T08:02:45;100182.41;;;25.57;26.62
69848;BME280;57143;55.940;37.496;2022-08-21T08:05:15;100175.72;;;25.58;26.91
69848;BME280;57143;55.940;37.496;2022-08-21T08:07:42;100180.16;;;25.59;26.79
69848;BME280;57143;55.940;37.496;2022-08-21T08:10:10;100165.84;;;25.52;26.86
69848;BME280;57143;55.940;37.496;2022-08-21T08:12:39;100167.78;;;25.51;26.92
69848;BME280;57143;55.940;37.496;2022-08-21T08:15:10;100174.41;;;25.69;26.38
69848;BME280;57143;55.940;37.496;2022-08-21T08:17:37;100179.72;;;25.52;26.33
69848;BME280;57143;55.940;37.496;2022-08-21T08:20:06;100179.81;;;25.47;25.70
69848;BME280;57143;55.940;37.496;2022-08-21T08:22:38;100172.22;;;25.52;25.70
69848;BME280;57143;55.940;37.496;2022-08-21T08:25:07;100161.94;;;25.66;25.01
69848;BME280;57143;55.940;37.496;2022-08-21T08:27:35;100155.13;;;26.04;24.74
69848;BME280;57143;55.940;37.496;2022-08-21T08:30:02;100152.25;;;26.50;24.61
69848;BME280;57143;55.940;37.496;2022-08-21T08:32:31;100153.84;;;26.65;23.89
69848;BME280;57143;55.940;37.496;2022-08-21T08:34:58;100144.66;;;26.91;23.96
69848;BME280;57143;55.940;37.496;2022-08-21T08:37:25;100134.84;;;26.45;24.29
69848;BME280;57143;55.940;37.496;2022-08-21T08:39:52;100122.97;;;26.53;24.15
69848;BME280;57143;55.940;37.496;2022-08-21T08:42:24;100101.47;;;26.45;23.70
69848;BME280;57143;55.940;37.496;2022-08-21T08:44:57;100143.28;;;26.40;22.93
69848;BME280;57143;55.940;37.496;2022-08-21T08:47:27;100100.47;;;26.00;23.01
69848;BME280;57143;55.940;37.496;2022-08-21T08:50:03;100125.41;;;26.05;22.94
69848;BME280;57143;55.940;37.496;2022-08-21T08:52:32;100122.94;;;26.03;23.37
69848;BME280;57143;55.940;37.496;2022-08-21T08:55:04;100126.16;;;25.78;23.71
69848;BME280;57143;55.940;37.496;2022-08-21T08:57:33;100122.06;;;25.76;23.87
69848;BME280;57143;55.940;37.496;2022-08-21T09:00:05;100127.72;;;25.84;24.84
69848;BME280;57143;55.940;37.496;2022-08-21T09:02:34;100134.59;;;25.87;24.41
69848;BME280;57143;55.940;37.496;2022-08-21T09:05:05;100127.00;;;25.79;24.86
69848;BME280;57143;55.940;37.496;2022-08-21T09:07:37;100136.47;;;25.64;24.35
69848;BME280;57143;55.940;37.496;2022-08-21T09:10:13;100115.25;;;25.68;24.34
69848;BME280;57143;55.940;37.496;2022-08-21T09:12:51;100134.59;;;25.87;24.53
69848;BME280;57143;55.940;37.496;2022-08-21T09:15:28;100130.09;;;25.77;23.82
69848;BME280;57143;55.940;37.496;2022-08-21T09:18:16;100123.16;;;25.61;24.04
69848;BME280;57143;55.940;37.496;2022-08-21T09:20:57;100117.13;;;25.73;23.61
69848;BME280;57143;55.940;37.496;2022-08-21T09:23:34;100121.97;;;25.94;23.96
69848;BME280;57143;55.940;37.496;2022-08-21T09:26:11;100140.53;;;25.53;23.23
69848;BME280;57143;55.940;37.496;2022-08-21T09:28:39;100130.47;;;25.57;23.46
69848;BME280;57143;55.940;37.496;2022-08-21T09:31:08;100131.19;;;25.63;23.45
69848;BME280;57143;55.940;37.496;2022-08-21T09:33:39;100125.84;;;25.66;23.32
69848;BME280;57143;55.940;37.496;2022-08-21T09:36:07;100117.44;;;25.71;23.30
69848;BME280;57143;55.940;37.496;2022-08-21T09:38:36;100120.34;;;25.80;23.14
69848;BME280;57143;55.940;37.496;2022-08-21T09:41:05;100117.72;;;25.70;22.85
69848;BME280;57143;55.940;37.496;2022-08-21T09:43:33;100098.81;;;25.72;23.07
69848;BME280;57143;55.940;37.496;2022-08-21T09:46:08;100119.38;;;25.71;23.02
69848;BME280;57143;55.940;37.496;2022-08-21T09:48:42;100097.06;;;25.62;23.04
69848;BME280;57143;55.940;37.496;2022-08-21T09:51:14;100123.00;;;25.85;22.61
69848;BME280;57143;55.940;37.496;2022-08-21T09:53:44;100125.47;;;25.86;22.94
69848;BME280;57143;55.940;37.496;2022-08-21T09:56:20;100104.06;;;25.87;22.93
69848;BME280;57143;55.940;37.496;2022-08-21T09:59:15;100117.16;;;25.86;23.16
69848;BME280;57143;55.940;37.496;2022-08-21T10:01:43;100112.38;;;25.87;22.89
69848;BME280;57143;55.940;37.496;2022-08-21T10:04:11;100112.59;;;25.90;23.09
69848;BME280;57143;55.940;37.496;2022-08-21T10:06:40;100123.31;;;25.83;23.11
69848;BME280;57143;55.940;37.496;2022-08-21T10:09:10;100120.34;;;25.80;23.30
69848;BME280;57143;55.940;37.496;2022-08-21T10:11:38;100114.56;;;25.76;23.29
69848;BME280;57143;55.940;37.496;2022-08-21T10:14:14;100112.69;;;25.85;22.98
69848;BME280;57143;55.940;37.496;2022-08-21T10:16:54;100103.47;;;25.90;23.18
69848;BME280;57143;55.940;37.496;2022-08-21T10:19:30;100118.66;;;25.79;22.48
69848;BME280;57143;55.940;37.496;2022-08-21T10:22:11;100104.06;;;25.73;22.61
69848;BME280;57143;55.940;37.496;2022-08-21T10:24:46;100097.81;;;25.81;22.70
69848;BME280;57143;55.940;37.496;2022-08-21T10:27:25;100089.78;;;25.80;22.63
69848;BME280;57143;55.940;37.496;2022-08-21T10:29:57;100081.50;;;25.61;22.66
69848;BME280;57143;55.940;37.496;2022-08-21T10:35:28;100058.69;;;25.91;23.03
69848;BME280;57143;55.940;37.496;2022-08-21T10:41:15;100098.84;;;26.26;21.38
69848;BME280;57143;55.940;37.496;2022-08-21T10:43:51;100085.16;;;26.30;21.86
69848;BME280;57143;55.940;37.496;2022-08-21T10:46:26;100093.13;;;26.45;21.37
69848;BME280;57143;55.940;37.496;2022-08-21T10:49:10;100107.66;;;26.42;21.83
69848;BME280;57143;55.940;37.496;2022-08-21T10:51:43;100100.91;;;26.07;21.79
69848;BME280;57143;55.940;37.496;2022-08-21T10:54:20;100051.69;;;25.67;21.68
69848;BME280;57143;55.940;37.496;2022-08-21T10:56:58;100078.97;;;25.92;22.19
69848;BME280;57143;55.940;37.496;2022-08-21T10:59:30;100066.09;;;25.82;22.29
69848;BME280;57143;55.940;37.496;2022-08-21T11:02:02;100081.78;;;26.05;22.53
69848;BME280;57143;55.940;37.496;2022-08-21T11:04:35;100082.28;;;26.07;22.62
69848;BME280;57143;55.940;37.496;2022-08-21T11:07:06;100075.69;;;26.03;22.22
69848;BME280;57143;55.940;37.496;2022-08-21T11:09:37;100085.56;;;26.09;22.15
69848;BME280;57143;55.940;37.496;2022-08-21T11:12:12;100072.91;;;26.17;21.90
69848;BME280;57143;55.940;37.496;2022-08-21T11:14:51;100047.47;;;25.96;22.19
69848;BME280;57143;55.940;37.496;2022-08-21T11:17:25;100083.72;;;26.05;21.67
69848;BME280;57143;55.940;37.496;2022-08-21T11:20:03;100073.44;;;26.05;21.88
69848;BME280;57143;55.940;37.496;2022-08-21T11:22:35;100062.41;;;26.14;21.83
69848;BME280;57143;55.940;37.496;2022-08-21T11:25:11;100060.72;;;26.27;21.38
69848;BME280;57143;55.940;37.496;2022-08-21T11:27:44;100063.31;;;26.37;21.38
69848;BME280;57143;55.940;37.496;2022-08-21T11:30:12;100049.38;;;26.50;21.20
69848;BME280;57143;55.940;37.496;2022-08-21T11:32:50;100055.00;;;26.59;21.05
69848;BME280;57143;55.940;37.496;2022-08-21T11:35:27;100046.00;;;26.40;20.89
69848;BME280;57143;55.940;37.496;2022-08-21T11:38:03;100058.81;;;26.49;21.53
69848;BME280;57143;55.940;37.496;2022-08-21T11:40:48;100058.59;;;26.59;21.41
69848;BME280;57143;55.940;37.496;2022-08-21T11:43:23;100059.09;;;26.61;21.13
69848;BME280;57143;55.940;37.496;2022-08-21T11:45:55;100066.97;;;26.46;21.50
69848;BME280;57143;55.940;37.496;2022-08-21T11:48:36;100074.47;;;26.23;21.63
69848;BME280;57143;55.940;37.496;2022-08-21T11:51:10;100053.56;;;26.12;21.55
69848;BME280;57143;55.940;37.496;2022-08-21T11:53:42;100068.28;;;26.12;21.97
69848;BME280;57143;55.940;37.496;2022-08-21T11:56:21;100076.41;;;26.23;21.74
69848;BME280;57143;55.940;37.496;2022-08-21T11:58:54;100076.72;;;26.21;22.06
69848;BME280;57143;55.940;37.496;2022-08-21T12:01:25;100071.66;;;26.09;21.84
69848;BME280;57143;55.940;37.496;2022-08-21T12:03:57;100045.66;;;25.92;22.06
69848;BME280;57143;55.940;37.496;2022-08-21T12:06:31;100048.00;;;26.12;22.33
69848;BME280;57143;55.940;37.496;2022-08-21T12:09:00;100046.06;;;26.12;22.28
69848;BME280;57143;55.940;37.496;2022-08-21T12:11:29;100049.84;;;26.16;22.11
69848;BME280;57143;55.940;37.496;2022-08-21T12:13:59;100058.28;;;26.11;21.98
69848;BME280;57143;55.940;37.496;2022-08-21T12:16:32;100055.94;;;26.05;21.36
69848;BME280;57143;55.940;37.496;2022-08-21T12:19:04;100041.28;;;25.99;22.17
69848;BME280;57143;55.940;37.496;2022-08-21T12:21:32;100044.91;;;26.00;21.78
69848;BME280;57143;55.940;37.496;2022-08-21T12:24:04;100036.25;;;26.15;21.88
69848;BME280;57143;55.940;37.496;2022-08-21T12:26:34;100049.72;;;26.21;21.50
69848;BME280;57143;55.940;37.496;2022-08-21T12:29:10;100044.81;;;26.18;21.48
69848;BME280;57143;55.940;37.496;2022-08-21T12:31:48;100045.00;;;26.22;21.83
69848;BME280;57143;55.940;37.496;2022-08-21T12:34:16;100035.63;;;26.18;21.72
69848;BME280;57143;55.940;37.496;2022-08-21T12:36:48;100036.81;;;26.03;21.89
69848;BME280;57143;55.940;37.496;2022-08-21T12:39:21;100033.91;;;26.08;22.02
69848;BME280;57143;55.940;37.496;2022-08-21T12:41:55;100045.88;;;26.09;22.19
69848;BME280;57143;55.940;37.496;2022-08-21T12:44:29;100028.56;;;25.98;20.83
69848;BME280;57143;55.940;37.496;2022-08-21T12:47:01;100034.63;;;26.00;21.12
69848;BME280;57143;55.940;37.496;2022-08-21T12:49:32;100056.16;;;25.81;20.56
69848;BME280;57143;55.940;37.496;2022-08-21T12:52:06;100021.88;;;25.72;20.84
69848;BME280;57143;55.940;37.496;2022-08-21T12:54:41;100035.47;;;25.74;20.63
69848;BME280;57143;55.940;37.496;2022-08-21T12:57:19;100028.38;;;25.81;21.03
69848;BME280;57143;55.940;37.496;2022-08-21T12:59:52;100026.69;;;25.80;21.21